Time,TemperatureF,DewpointF,PressureIn,WindDirection,WindDirectionDegrees,WindSpeedMPH,WindSpeedGustMPH,Humidity,HourlyPrecipIn,Conditions,Clouds,dailyrainin,SolarRadiationWatts/m^2,SoftwareType,DateUTC
2013-05-22 00:04:00,68.0,68.0,-100.00,ESE,120,0.0,0.0,100,0.00,,,0.07,0.000000,,2013-05-22 04:04:00,
2013-05-22 00:13:00,68.0,68.0,-100.00,ESE,120,0.0,0.0,100,0.00,,,0.07,0.000000,,2013-05-22 04:13:00,
2013-05-22 00:43:00,68.0,68.0,-100.00,ESE,112,0.0,2.0,100,0.00,,,0.07,0.000000,,2013-05-22 04:43:00,
2013-05-22 00:53:00,68.0,68.0,-100.00,ESE,112,0.0,2.0,100,0.00,,,0.07,0.000000,,2013-05-22 04:53:00,
2013-05-22 01:02:00,68.0,68.0,-100.00,ESE,112,0.0,2.0,100,0.00,,,0.07,0.000000,,2013-05-22 05:02:00,
2013-05-22 01:12:00,68.0,68.0,-100.00,ESE,112,0.0,2.0,100,0.00,,,0.07,0.000000,,2013-05-22 05:12:00,
2013-05-22 01:21:00,68.0,68.0,-100.00,ESE,112,0.0,2.0,100,0.00,,,0.07,0.000000,,2013-05-22 05:21:00,
2013-05-22 01:42:00,67.0,67.0,-100.00,ESE,107,1.0,4.0,100,0.00,,,0.07,0.000000,,2013-05-22 05:42:00,
2013-05-22 01:52:00,67.0,67.0,-100.00,ESE,107,1.0,4.0,100,0.00,,,0.07,0.000000,,2013-05-22 05:52:00,
2013-05-22 02:01:00,67.0,67.0,-100.00,ESE,107,1.0,4.0,100,0.00,,,0.07,0.000000,,2013-05-22 06:01:00,
2013-05-22 02:12:00,67.0,67.0,-100.00,ESE,107,1.0,4.0,100,0.00,,,0.07,0.000000,,2013-05-22 06:12:00,
2013-05-22 02:21:00,67.0,67.0,-100.00,ESE,107,1.0,4.0,100,0.00,,,0.07,0.000000,,2013-05-22 06:21:00,
2013-05-22 02:42:00,65.0,65.0,-100.00,ESE,110,1.0,4.0,100,0.00,,,0.07,0.000000,,2013-05-22 06:42:00,
2013-05-22 02:52:00,65.0,65.0,-100.00,ESE,110,1.0,4.0,100,0.00,,,0.07,0.000000,,2013-05-22 06:52:00,
2013-05-22 03:01:00,65.0,65.0,-100.00,ESE,110,1.0,4.0,100,0.00,,,0.07,0.000000,,2013-05-22 07:01:00,
2013-05-22 03:11:00,65.0,65.0,-100.00,ESE,110,1.0,4.0,100,0.00,,,0.07,0.000000,,2013-05-22 07:11:00,
2013-05-22 03:21:00,65.0,65.0,-100.00,ESE,110,1.0,4.0,100,0.00,,,0.07,0.000000,,2013-05-22 07:21:00,
2013-05-22 03:42:00,64.0,64.0,-100.00,ESE,107,0.0,3.0,100,0.00,,,0.07,0.000000,,2013-05-22 07:42:00,
2013-05-22 03:53:00,64.0,64.0,-100.00,ESE,107,0.0,3.0,100,0.00,,,0.07,0.000000,,2013-05-22 07:53:00,
2013-05-22 04:02:00,64.0,64.0,-100.00,ESE,107,0.0,3.0,100,0.00,,,0.07,0.000000,,2013-05-22 08:02:00,
2013-05-22 04:11:00,64.0,64.0,-100.00,ESE,107,0.0,3.0,100,0.00,,,0.07,0.000000,,2013-05-22 08:11:00,
2013-05-22 04:22:00,64.0,64.0,-100.00,ESE,107,0.0,3.0,100,0.00,,,0.07,0.000000,,2013-05-22 08:22:00,
2013-05-22 04:42:00,63.0,63.0,-100.00,ESE,119,0.0,1.0,100,0.00,,,0.07,0.000000,,2013-05-22 08:42:00,
2013-05-22 04:52:00,63.0,63.0,-100.00,ESE,119,0.0,1.0,100,0.00,,,0.07,0.000000,,2013-05-22 08:52:00,
2013-05-22 05:01:00,63.0,63.0,-100.00,ESE,119,0.0,1.0,100,0.00,,,0.07,0.000000,,2013-05-22 09:01:00,
2013-05-22 05:12:00,63.0,63.0,-100.00,ESE,119,0.0,1.0,100,0.00,,,0.07,0.000000,,2013-05-22 09:12:00,
2013-05-22 05:22:00,63.0,63.0,-100.00,ESE,119,0.0,1.0,100,0.00,,,0.07,0.000000,,2013-05-22 09:22:00,
2013-05-22 05:23:00,62.0,62.0,-100.00,ESE,122,0.0,0.0,100,0.00,,,0.07,0.000000,,2013-05-22 09:23:00,
2013-05-22 05:43:00,62.0,62.0,-100.00,ESE,122,0.0,0.0,100,0.00,,,0.07,0.000000,,2013-05-22 09:43:00,
2013-05-22 05:53:00,62.0,62.0,-100.00,ESE,122,0.0,0.0,100,0.00,,,0.07,0.000000,,2013-05-22 09:53:00,
2013-05-22 06:03:00,62.0,62.0,-100.00,ESE,122,0.0,0.0,100,0.00,,,0.07,0.000000,,2013-05-22 10:03:00,
2013-05-22 06:12:00,62.0,62.0,-100.00,ESE,122,0.0,0.0,100,0.00,,,0.07,0.000000,,2013-05-22 10:12:00,
2013-05-22 06:42:00,62.0,62.0,-100.00,ESE,117,0.0,0.0,100,0.00,,,0.07,1.000000,,2013-05-22 10:42:00,
2013-05-22 06:53:00,62.0,62.0,-100.00,ESE,117,0.0,0.0,100,0.00,,,0.07,1.000000,,2013-05-22 10:53:00,
2013-05-22 07:02:00,62.0,62.0,-100.00,ESE,117,0.0,0.0,100,0.00,,,0.07,1.000000,,2013-05-22 11:02:00,
2013-05-22 07:12:00,62.0,62.0,-100.00,ESE,117,0.0,0.0,100,0.00,,,0.07,1.000000,,2013-05-22 11:12:00,
2013-05-22 07:22:00,62.0,62.0,-100.00,ESE,117,0.0,0.0,100,0.00,,,0.07,1.000000,,2013-05-22 11:22:00,
2013-05-22 07:42:00,62.0,62.0,-100.00,ESE,109,0.0,0.0,100,0.00,,,0.07,27.000000,,2013-05-22 11:42:00,
2013-05-22 07:53:00,62.0,62.0,-100.00,ESE,109,0.0,0.0,100,0.00,,,0.07,27.000000,,2013-05-22 11:53:00,
2013-05-22 08:02:00,62.0,62.0,-100.00,ESE,109,0.0,0.0,100,0.00,,,0.07,27.000000,,2013-05-22 12:02:00,
2013-05-22 08:12:00,62.0,62.0,-100.00,ESE,109,0.0,0.0,100,0.00,,,0.07,27.000000,,2013-05-22 12:12:00,
2013-05-22 08:22:00,62.0,62.0,-100.00,ESE,109,0.0,0.0,100,0.00,,,0.07,27.000000,,2013-05-22 12:22:00,
2013-05-22 08:42:00,66.0,66.0,-100.00,ESE,115,0.0,1.0,100,0.00,,,0.07,86.000000,,2013-05-22 12:42:00,
2013-05-22 08:52:00,66.0,66.0,-100.00,ESE,115,0.0,1.0,100,0.00,,,0.07,86.000000,,2013-05-22 12:52:00,
2013-05-22 09:02:00,66.0,66.0,-100.00,ESE,115,0.0,1.0,100,0.00,,,0.07,86.000000,,2013-05-22 13:02:00,
2013-05-22 09:12:00,66.0,66.0,-100.00,ESE,115,0.0,1.0,100,0.00,,,0.07,86.000000,,2013-05-22 13:12:00,
2013-05-22 09:22:00,66.0,66.0,-100.00,ESE,115,0.0,1.0,100,0.00,,,0.07,86.000000,,2013-05-22 13:22:00,
2013-05-22 09:42:00,74.0,73.0,-100.00,ESE,114,0.0,0.0,96,0.00,,,0.07,332.000000,,2013-05-22 13:42:00,
2013-05-22 09:52:00,74.0,73.0,-100.00,ESE,114,0.0,0.0,96,0.00,,,0.07,332.000000,,2013-05-22 13:52:00,
2013-05-22 10:02:00,74.0,73.0,-100.00,ESE,114,0.0,0.0,96,0.00,,,0.07,332.000000,,2013-05-22 14:02:00,
2013-05-22 10:11:00,74.0,73.0,-100.00,ESE,114,0.0,0.0,96,0.00,,,0.07,332.000000,,2013-05-22 14:11:00,
2013-05-22 10:21:00,74.0,73.0,-100.00,ESE,114,0.0,0.0,96,0.00,,,0.07,332.000000,,2013-05-22 14:21:00,
2013-05-22 10:42:00,79.0,73.0,-100.00,ENE,57,0.0,0.0,83,0.00,,,-99.99,511.000000,,2013-05-22 14:42:00,
2013-05-22 10:53:00,79.0,73.0,-100.00,ENE,57,0.0,0.0,83,0.00,,,-99.99,511.000000,,2013-05-22 14:53:00,
2013-05-22 11:01:00,79.0,73.0,-100.00,ENE,57,0.0,0.0,83,0.00,,,-99.99,511.000000,,2013-05-22 15:01:00,
2013-05-22 11:11:00,79.0,73.0,-100.00,ENE,57,0.0,0.0,83,0.00,,,-99.99,511.000000,,2013-05-22 15:11:00,
2013-05-22 11:22:00,79.0,73.0,-100.00,ENE,57,0.0,0.0,83,0.00,,,-99.99,511.000000,,2013-05-22 15:22:00,
2013-05-22 11:23:00,81.0,74.0,-100.00,NNE,25,0.0,0.0,79,0.00,,,0.07,665.000000,,2013-05-22 15:23:00,
2013-05-22 11:43:00,81.0,74.0,-100.00,NNE,25,0.0,0.0,79,0.00,,,0.07,665.000000,,2013-05-22 15:43:00,
2013-05-22 11:53:00,81.0,74.0,-100.00,NNE,25,0.0,0.0,79,0.00,,,0.07,665.000000,,2013-05-22 15:53:00,
2013-05-22 12:03:00,81.0,74.0,-100.00,NNE,25,0.0,0.0,79,0.00,,,0.07,665.000000,,2013-05-22 16:03:00,
2013-05-22 12:12:00,81.0,74.0,-100.00,NNE,25,0.0,0.0,79,0.00,,,0.07,665.000000,,2013-05-22 16:12:00,
2013-05-22 12:23:00,81.0,74.0,-100.00,East,92,1.0,4.0,79,0.00,,,0.07,678.000000,,2013-05-22 16:23:00,
2013-05-22 12:42:00,81.0,74.0,-100.00,East,92,1.0,4.0,79,0.00,,,0.07,678.000000,,2013-05-22 16:42:00,
2013-05-22 12:53:00,81.0,74.0,-100.00,East,92,1.0,4.0,79,0.00,,,0.07,678.000000,,2013-05-22 16:53:00,
2013-05-22 13:02:00,81.0,74.0,-100.00,East,92,1.0,4.0,79,0.00,,,0.07,678.000000,,2013-05-22 17:02:00,
2013-05-22 13:12:00,81.0,74.0,-100.00,East,92,1.0,4.0,79,0.00,,,0.07,678.000000,,2013-05-22 17:12:00,
2013-05-22 13:42:00,83.0,73.0,-100.00,ENE,67,2.0,6.0,73,0.00,,,0.07,689.000000,,2013-05-22 17:42:00,
2013-05-22 13:54:00,83.0,73.0,-100.00,ENE,67,2.0,6.0,73,0.00,,,0.07,689.000000,,2013-05-22 17:54:00,
2013-05-22 14:02:00,83.0,73.0,-100.00,ENE,67,2.0,6.0,73,0.00,,,0.07,689.000000,,2013-05-22 18:02:00,
2013-05-22 14:14:00,83.0,73.0,-100.00,ENE,67,2.0,6.0,73,0.00,,,0.07,689.000000,,2013-05-22 18:14:00,
2013-05-22 14:22:00,83.0,73.0,-100.00,ENE,67,2.0,6.0,73,0.00,,,0.07,689.000000,,2013-05-22 18:22:00,
2013-05-22 14:42:00,85.0,70.0,-100.00,ENE,71,2.0,9.0,61,0.00,,,0.07,786.000000,,2013-05-22 18:42:00,
2013-05-22 14:52:00,85.0,70.0,-100.00,ENE,71,2.0,9.0,61,0.00,,,0.07,786.000000,,2013-05-22 18:52:00,
2013-05-22 15:02:00,85.0,70.0,-100.00,ENE,71,2.0,9.0,61,0.00,,,0.07,786.000000,,2013-05-22 19:02:00,
2013-05-22 15:11:00,85.0,70.0,-100.00,ENE,71,2.0,9.0,61,0.00,,,0.07,786.000000,,2013-05-22 19:11:00,
2013-05-22 15:21:00,85.0,70.0,-100.00,ENE,71,2.0,9.0,61,0.00,,,0.07,786.000000,,2013-05-22 19:21:00,
2013-05-22 15:42:00,80.0,68.0,-100.00,North,10,2.0,7.0,66,0.00,,,0.07,362.000000,,2013-05-22 19:42:00,
2013-05-22 15:52:00,80.0,68.0,-100.00,North,10,2.0,7.0,66,0.00,,,0.07,362.000000,,2013-05-22 19:52:00,
2013-05-22 16:02:00,80.0,68.0,-100.00,North,10,2.0,7.0,66,0.00,,,0.07,362.000000,,2013-05-22 20:02:00,
2013-05-22 16:11:00,80.0,68.0,-100.00,North,10,2.0,7.0,66,0.00,,,0.07,362.000000,,2013-05-22 20:11:00,
2013-05-22 16:22:00,80.0,68.0,-100.00,North,10,2.0,7.0,66,0.00,,,0.07,362.000000,,2013-05-22 20:22:00,
2013-05-22 16:42:00,79.0,70.0,-100.00,East,85,2.0,7.0,73,0.00,,,0.07,292.000000,,2013-05-22 20:42:00,
2013-05-22 16:52:00,79.0,70.0,-100.00,East,85,2.0,7.0,73,0.00,,,0.07,292.000000,,2013-05-22 20:52:00,
2013-05-22 17:01:00,79.0,70.0,-100.00,East,85,2.0,7.0,73,0.00,,,0.07,292.000000,,2013-05-22 21:01:00,
2013-05-22 17:11:00,79.0,70.0,-100.00,East,85,2.0,7.0,73,0.00,,,0.07,292.000000,,2013-05-22 21:11:00,
2013-05-22 17:21:00,79.0,70.0,-100.00,East,85,2.0,7.0,73,0.00,,,0.07,292.000000,,2013-05-22 21:21:00,
2013-05-22 17:42:00,78.0,68.0,-100.00,North,349,3.0,11.0,72,0.00,,,0.07,218.000000,,2013-05-22 21:42:00,
2013-05-22 17:53:00,78.0,68.0,-100.00,North,349,3.0,11.0,72,0.00,,,0.07,218.000000,,2013-05-22 21:53:00,
2013-05-22 18:03:00,78.0,68.0,-100.00,North,349,3.0,11.0,72,0.00,,,0.07,218.000000,,2013-05-22 22:03:00,
2013-05-22 18:13:00,78.0,68.0,-100.00,North,349,3.0,11.0,72,0.00,,,0.07,218.000000,,2013-05-22 22:13:00,
2013-05-22 18:22:00,78.0,68.0,-100.00,North,349,3.0,11.0,72,0.00,,,0.07,218.000000,,2013-05-22 22:22:00,
2013-05-22 18:42:00,76.0,66.0,-100.00,ESE,111,2.0,5.0,72,0.00,,,0.01,217.000000,,2013-05-22 22:42:00,
2013-05-22 18:52:00,76.0,66.0,-100.00,ESE,111,2.0,5.0,72,0.00,,,0.01,217.000000,,2013-05-22 22:52:00,
2013-05-22 19:02:00,76.0,66.0,-100.00,ESE,111,2.0,5.0,72,0.00,,,0.01,217.000000,,2013-05-22 23:02:00,
2013-05-22 19:12:00,76.0,66.0,-100.00,ESE,111,2.0,5.0,72,0.00,,,0.01,217.000000,,2013-05-22 23:12:00,
2013-05-22 19:21:00,76.0,66.0,-100.00,ESE,111,2.0,5.0,72,0.00,,,0.01,217.000000,,2013-05-22 23:21:00,
2013-05-22 19:42:00,74.0,66.0,-100.00,ESE,112,1.0,7.0,76,0.00,,,0.00,52.000000,,2013-05-22 23:42:00,
2013-05-22 19:53:00,74.0,66.0,-100.00,ESE,112,1.0,7.0,76,0.00,,,0.00,52.000000,,2013-05-22 23:53:00,
2013-05-22 20:02:00,74.0,66.0,-100.00,ESE,112,1.0,7.0,76,0.00,,,0.00,52.000000,,2013-05-23 00:02:00,
2013-05-22 20:11:00,74.0,66.0,-100.00,ESE,112,1.0,7.0,76,0.00,,,0.00,52.000000,,2013-05-23 00:11:00,
2013-05-22 20:22:00,74.0,66.0,-100.00,ESE,112,1.0,7.0,76,0.00,,,0.00,52.000000,,2013-05-23 00:22:00,
2013-05-22 20:42:00,72.0,64.0,-100.00,ESE,106,0.0,6.0,76,0.00,,,0.00,15.000000,,2013-05-23 00:42:00,
2013-05-22 20:52:00,72.0,64.0,-100.00,ESE,106,0.0,6.0,76,0.00,,,0.00,15.000000,,2013-05-23 00:52:00,
2013-05-22 21:01:00,72.0,64.0,-100.00,ESE,106,0.0,6.0,76,0.00,,,0.00,15.000000,,2013-05-23 01:01:00,
2013-05-22 21:11:00,72.0,64.0,-100.00,ESE,106,0.0,6.0,76,0.00,,,0.00,15.000000,,2013-05-23 01:11:00,
2013-05-22 21:22:00,72.0,64.0,-100.00,ESE,106,0.0,6.0,76,0.00,,,0.00,15.000000,,2013-05-23 01:22:00,
2013-05-22 21:42:00,72.0,65.0,-100.00,ESE,110,0.0,0.0,79,0.00,,,0.00,1.000000,,2013-05-23 01:42:00,
2013-05-22 21:52:00,72.0,65.0,-100.00,ESE,110,0.0,0.0,79,0.00,,,0.00,1.000000,,2013-05-23 01:52:00,
2013-05-22 22:02:00,72.0,65.0,-100.00,ESE,110,0.0,0.0,79,0.00,,,0.00,1.000000,,2013-05-23 02:02:00,
2013-05-22 22:11:00,72.0,65.0,-100.00,ESE,110,0.0,0.0,79,0.00,,,0.00,1.000000,,2013-05-23 02:11:00,
2013-05-22 22:21:00,72.0,65.0,-100.00,ESE,110,0.0,0.0,79,0.00,,,0.00,1.000000,,2013-05-23 02:21:00,
2013-05-22 23:02:00,69.0,69.0,-100.00,ESE,109,0.0,5.0,100,0.00,,,0.00,0.000000,,2013-05-23 03:02:00,
2013-05-22 23:11:00,69.0,69.0,-100.00,ESE,109,0.0,5.0,100,0.00,,,0.00,0.000000,,2013-05-23 03:11:00,
2013-05-22 23:21:00,69.0,69.0,-100.00,ESE,109,0.0,5.0,100,0.00,,,0.00,0.000000,,2013-05-23 03:21:00,
2013-05-22 23:43:00,67.0,67.0,-100.00,North,356,2.0,9.0,100,0.01,,,0.01,0.000000,,2013-05-23 03:43:00,
2013-05-22 23:53:00,67.0,67.0,-100.00,North,356,2.0,9.0,100,0.01,,,0.01,0.000000,,2013-05-23 03:53:00,